Time;durP1;ratioP1;P1;durP2;ratioP2;P2;SDS_P1;SDS_P2;PMS_P1;PMS_P2;Temp;Humidity;BMP_temperature;BMP_pressure;BME280_temperature;BME280_humidity;BME280_pressure;Samples;Min_cycle;Max_cycle;Signal;HPM_P1;HPM_P2
2022/01/11 00:00:27;;;;;;;57.90;23.83;;;3.40;77.80;;;;;;4140424;28;20057;-75
2022/01/11 00:02:28;;;;;;;57.08;22.75;;;3.30;77.60;;;;;;4139597;28;20034;-76
2022/01/11 00:04:30;;;;;;;56.30;23.10;;;3.30;77.60;;;;;;4140378;28;20049;-75
2022/01/11 00:06:40;;;;;;;53.22;22.77;;;3.30;77.40;;;;;;4145973;28;20045;-76
2022/01/11 00:08:43;;;;;;;58.30;24.17;;;3.30;77.40;;;;;;4141571;28;20040;-76
2022/01/11 00:10:53;;;;;;;58.05;22.48;;;3.30;77.40;;;;;;4153541;28;20092;-77
2022/01/11 00:12:55;;;;;;;51.35;22.13;;;3.30;77.30;;;;;;4151853;28;20037;-77
2022/01/11 00:14:56;;;;;;;56.33;22.70;;;3.30;77.20;;;;;;4149703;28;20030;-76
2022/01/11 00:16:58;;;;;;;60.85;24.02;;;3.20;77.10;;;;;;4152760;28;20559;-76
2022/01/11 00:19:05;;;;;;;58.08;23.35;;;3.30;77.10;;;;;;4127923;28;20038;-76
2022/01/11 00:21:06;;;;;;;58.13;23.40;;;3.30;77.10;;;;;;4133409;28;20025;-76
2022/01/11 00:25:07;;;;;;;53.95;22.13;;;3.20;76.90;;;;;;4133288;28;20054;-76
2022/01/11 00:27:09;;;;;;;61.70;24.58;;;3.30;77.00;;;;;;4156206;28;20021;-75
2022/01/11 00:29:09;;;;;;;50.33;21.50;;;3.30;76.90;;;;;;4140173;28;20037;-76
2022/01/11 00:31:10;;;;;;;52.47;21.60;;;3.30;77.60;;;;;;4150564;28;20030;-75
2022/01/11 00:33:15;;;;;;;55.72;21.60;;;3.30;76.90;;;;;;4154907;28;20096;-75
2022/01/11 00:35:17;;;;;;;54.00;21.23;;;3.30;76.90;;;;;;4132854;28;20048;-75
2022/01/11 00:37:19;;;;;;;50.83;21.50;;;3.30;77.00;;;;;;4124873;28;20034;-76
2022/01/11 00:39:19;;;;;;;56.40;22.50;;;3.30;76.90;;;;;;4141262;28;20046;-76
2022/01/11 00:41:20;;;;;;;55.13;23.42;;;3.30;77.20;;;;;;4125110;28;20083;-75
2022/01/11 00:43:22;;;;;;;55.38;21.92;;;3.30;76.90;;;;;;4165786;28;20509;-75
2022/01/11 00:45:22;;;;;;;56.33;23.05;;;3.30;76.90;;;;;;4139395;28;20406;-74
2022/01/11 00:47:23;;;;;;;58.05;23.33;;;3.30;76.80;;;;;;4138691;28;20026;-75
2022/01/11 00:49:24;;;;;;;57.63;23.25;;;3.40;76.80;;;;;;4120814;28;20027;-75
2022/01/11 00:51:24;;;;;;;61.85;23.90;;;3.40;76.80;;;;;;4135071;28;20139;-76
2022/01/11 00:53:25;;;;;;;60.80;24.25;;;3.40;76.80;;;;;;4134644;28;20030;-76
2022/01/11 00:55:26;;;;;;;59.30;23.48;;;3.40;77.50;;;;;;4132305;28;20030;-74
2022/01/11 00:57:26;;;;;;;59.13;24.23;;;3.40;76.70;;;;;;4137514;28;20045;-76
2022/01/11 00:59:27;;;;;;;65.68;24.23;;;3.40;76.80;;;;;;4114620;28;20466;-76
2022/01/11 01:01:33;;;;;;;63.15;23.48;;;3.40;76.70;;;;;;4125203;28;20511;-76
2022/01/11 01:03:34;;;;;;;63.50;23.17;;;3.40;76.70;;;;;;4141834;28;20057;-76
2022/01/11 01:05:35;;;;;;;66.32;23.52;;;3.40;76.60;;;;;;4146485;28;20120;-76
2022/01/11 01:07:35;;;;;;;60.42;22.80;;;3.40;76.70;;;;;;4158422;28;20129;-77
2022/01/11 01:09:54;;;;;;;53.20;23.02;;;3.40;76.70;;;;;;4128000;28;20034;-75
2022/01/11 01:11:55;;;;;;;65.78;23.95;;;3.40;76.80;;;;;;4131328;28;20050;-75
2022/01/11 01:13:56;;;;;;;56.13;23.90;;;3.40;76.70;;;;;;4148787;28;20089;-75
2022/01/11 01:15:57;;;;;;;59.17;22.20;;;3.40;76.80;;;;;;4156561;28;20064;-76
2022/01/11 01:17:57;;;;;;;61.53;22.42;;;3.40;76.70;;;;;;4120623;28;20030;-77
2022/01/11 01:19:58;;;;;;;63.97;24.90;;;3.40;76.80;;;;;;4128571;28;20446;-77
2022/01/11 01:21:58;;;;;;;62.70;24.48;;;3.40;76.70;;;;;;4120679;28;20031;-76
2022/01/11 01:23:59;;;;;;;56.30;23.30;;;3.40;76.70;;;;;;4127224;28;20438;-75
2022/01/11 01:26:00;;;;;;;53.55;22.38;;;3.40;76.70;;;;;;4133167;28;20046;-75
2022/01/11 01:28:01;;;;;;;54.80;22.48;;;3.40;76.70;;;;;;4138832;28;20469;-75
2022/01/11 01:30:03;;;;;;;60.42;23.55;;;3.40;76.80;;;;;;4131380;28;20035;-75
2022/01/11 01:32:04;;;;;;;60.53;23.67;;;3.40;76.80;;;;;;4150831;28;20029;-75
2022/01/11 01:34:05;;;;;;;58.70;22.85;;;3.40;76.80;;;;;;4139274;28;20026;-78
2022/01/11 01:36:11;;;;;;;62.08;23.63;;;3.40;76.80;;;;;;4110664;28;20094;-79
2022/01/11 01:38:12;;;;;;;59.28;23.35;;;3.40;76.70;;;;;;4120067;28;20113;-79
2022/01/11 01:40:13;;;;;;;59.17;22.63;;;3.40;76.80;;;;;;4117994;28;20119;-78
2022/01/11 01:42:14;;;;;;;56.00;23.42;;;3.40;76.70;;;;;;4129696;28;20045;-77
2022/01/11 01:44:15;;;;;;;61.67;22.40;;;3.50;76.80;;;;;;4123597;28;20671;-76
2022/01/11 01:46:16;;;;;;;54.95;23.08;;;3.40;76.80;;;;;;4125380;28;20030;-76
2022/01/11 01:48:16;;;;;;;63.25;23.50;;;3.40;76.70;;;;;;4139830;28;20107;-75
2022/01/11 01:50:17;;;;;;;64.53;25.02;;;3.50;76.70;;;;;;4143085;28;20049;-76
2022/01/11 01:52:18;;;;;;;57.00;23.08;;;3.50;76.60;;;;;;4143269;28;20371;-76
2022/01/11 01:54:19;;;;;;;60.63;22.85;;;3.50;76.60;;;;;;4108979;28;20207;-75
2022/01/11 01:56:20;;;;;;;54.75;22.55;;;3.50;76.50;;;;;;4121823;28;22043;-75
2022/01/11 01:58:21;;;;;;;66.70;24.17;;;3.40;76.40;;;;;;4141589;28;20043;-75
2022/01/11 02:00:23;;;;;;;66.70;25.00;;;3.40;76.40;;;;;;4142232;28;20073;-74
2022/01/11 02:02:24;;;;;;;65.32;24.42;;;3.40;76.40;;;;;;4122678;28;20109;-76
2022/01/11 02:04:24;;;;;;;63.88;25.60;;;3.40;76.40;;;;;;4156209;28;20030;-75
2022/01/11 02:06:25;;;;;;;62.00;24.83;;;3.40;77.20;;;;;;4158508;28;20018;-75
2022/01/11 02:08:25;;;;;;;54.03;22.38;;;3.40;76.50;;;;;;4155742;28;20017;-76
2022/01/11 02:10:26;;;;;;;59.03;23.30;;;3.40;76.60;;;;;;4156658;28;20385;-76
2022/01/11 02:12:28;;;;;;;60.50;24.02;;;3.30;76.70;;;;;;4138449;28;20026;-78
2022/01/11 02:14:29;;;;;;;53.80;22.45;;;3.30;77.50;;;;;;4129362;23;20406;-72
2022/01/11 02:16:30;;;;;;;58.05;23.70;;;3.40;76.90;;;;;;4133170;28;20033;-73
2022/01/11 02:18:30;;;;;;;63.70;24.80;;;3.30;76.80;;;;;;4124687;28;20034;-72
2022/01/11 02:20:31;;;;;;;57.53;23.58;;;3.40;76.80;;;;;;4140318;28;20117;-72
2022/01/11 02:22:32;;;;;;;63.92;23.70;;;3.30;76.70;;;;;;4136084;28;20096;-72
2022/01/11 02:24:33;;;;;;;57.65;24.05;;;3.40;76.90;;;;;;4138778;28;20017;-73
2022/01/11 02:26:34;;;;;;;65.25;25.13;;;3.30;76.90;;;;;;4134818;28;20030;-72
2022/01/11 02:28:35;;;;;;;58.78;23.15;;;3.30;77.50;;;;;;4135960;28;20041;-74
2022/01/11 02:30:36;;;;;;;66.63;25.95;;;3.30;76.80;;;;;;4124668;28;20120;-75
2022/01/11 02:32:50;;;;;;;64.95;23.88;;;3.30;76.90;;;;;;4137980;28;20034;-74
2022/01/11 02:34:51;;;;;;;58.47;24.65;;;3.30;76.90;;;;;;4141751;28;20033;-75
2022/01/11 02:36:51;;;;;;;60.20;24.70;;;3.30;76.90;;;;;;4135082;28;20176;-75
2022/01/11 02:38:53;;;;;;;58.60;24.85;;;3.30;76.90;;;;;;4139669;28;20054;-75
2022/01/11 02:40:53;;;;;;;63.30;25.23;;;3.30;77.00;;;;;;4139063;28;20432;-75
2022/01/11 02:42:54;;;;;;;70.55;27.40;;;3.30;77.00;;;;;;4122428;28;20026;-75
2022/01/11 02:44:55;;;;;;;71.25;25.58;;;3.30;77.10;;;;;;4139638;28;20056;-75
2022/01/11 02:46:55;;;;;;;60.25;24.50;;;3.20;77.10;;;;;;4123324;28;20026;-75
2022/01/11 02:48:56;;;;;;;67.20;25.67;;;3.30;77.20;;;;;;4138990;28;20113;-75
2022/01/11 02:50:57;;;;;;;68.38;25.42;;;3.20;77.10;;;;;;4121963;28;20022;-74
2022/01/11 02:52:58;;;;;;;67.88;25.67;;;3.20;77.20;;;;;;4139253;28;20484;-75
2022/01/11 02:54:58;;;;;;;67.30;27.25;;;3.20;77.30;;;;;;4139112;28;20026;-76
2022/01/11 02:56:59;;;;;;;60.30;24.40;;;3.20;77.30;;;;;;4140127;28;20045;-75
2022/01/11 02:59:00;;;;;;;67.25;26.27;;;3.30;77.40;;;;;;4138523;28;20041;-76
2022/01/11 03:01:00;;;;;;;59.08;24.23;;;3.20;77.40;;;;;;4137639;28;20065;-76
2022/01/11 03:03:17;;;;;;;69.68;26.48;;;3.20;77.40;;;;;;4139339;28;20065;-76
2022/01/11 03:05:18;;;;;;;65.07;25.42;;;3.20;77.40;;;;;;4136282;28;20034;-75
2022/01/11 03:07:20;;;;;;;71.05;26.33;;;3.20;77.40;;;;;;4138120;28;20399;-74
2022/01/11 03:09:21;;;;;;;72.10;27.25;;;3.20;77.50;;;;;;4140056;28;20053;-76
2022/01/11 03:11:24;;;;;;;66.20;27.40;;;3.20;77.50;;;;;;4122604;28;20061;-76
2022/01/11 03:13:25;;;;;;;66.45;25.55;;;3.20;77.50;;;;;;4137663;28;20034;-75
2022/01/11 03:15:25;;;;;;;67.22;26.08;;;3.20;77.50;;;;;;4135847;28;20108;-75
2022/01/11 03:17:26;;;;;;;68.38;27.92;;;3.20;77.60;;;;;;4139648;28;20029;-76
2022/01/11 03:19:27;;;;;;;71.30;28.95;;;3.20;77.60;;;;;;4119604;28;20072;-74
2022/01/11 03:21:28;;;;;;;65.10;27.00;;;3.20;77.60;;;;;;4137457;28;20026;-75
2022/01/11 03:23:29;;;;;;;73.75;30.33;;;3.30;77.70;;;;;;4140737;28;20037;-75
2022/01/11 03:25:29;;;;;;;69.20;26.77;;;3.20;77.60;;;;;;4140733;28;20021;-74
2022/01/11 03:27:30;;;;;;;64.32;27.67;;;3.20;77.70;;;;;;4109365;28;20037;-75
2022/01/11 03:29:31;;;;;;;71.13;28.98;;;3.20;77.80;;;;;;4123193;28;20073;-76
2022/01/11 03:31:31;;;;;;;77.82;30.85;;;3.20;77.80;;;;;;4123391;28;20031;-75
2022/01/11 03:33:32;;;;;;;74.57;29.02;;;3.10;77.80;;;;;;4153578;28;20437;-73
2022/01/11 03:35:33;;;;;;;68.55;27.73;;;3.10;77.80;;;;;;4122243;28;20032;-75
2022/01/11 03:37:33;;;;;;;83.05;31.45;;;3.10;77.80;;;;;;4135792;28;20100;-76
2022/01/11 03:39:34;;;;;;;70.47;28.05;;;3.10;77.70;;;;;;4154312;28;20045;-76
2022/01/11 03:41:34;;;;;;;72.18;29.35;;;3.00;77.70;;;;;;4133525;28;20033;-75
2022/01/11 03:43:35;;;;;;;71.47;29.38;;;3.00;77.50;;;;;;4126085;28;20030;-76
2022/01/11 03:45:36;;;;;;;77.53;29.30;;;2.90;77.30;;;;;;4136521;28;20113;-74
2022/01/11 03:47:37;;;;;;;70.35;28.00;;;2.90;77.20;;;;;;4136102;28;20072;-75
2022/01/11 03:49:38;;;;;;;70.32;28.27;;;2.80;77.10;;;;;;4134147;28;20112;-75
2022/01/11 03:51:39;;;;;;;75.53;29.17;;;2.80;77.10;;;;;;4151013;28;20490;-75
2022/01/11 03:53:51;;;;;;;70.03;30.85;;;2.70;77.00;;;;;;4135767;28;20029;-74
2022/01/11 03:56:21;;;;;;;75.82;29.55;;;2.60;77.00;;;;;;4141927;28;20034;-75
2022/01/11 03:58:24;;;;;;;76.07;28.98;;;2.60;77.00;;;;;;4134300;28;20073;-74
2022/01/11 04:00:24;;;;;;;73.53;27.63;;;2.50;77.10;;;;;;4134886;28;20029;-75
2022/01/11 04:02:25;;;;;;;68.40;28.13;;;2.40;77.10;;;;;;4139848;28;20026;-76
2022/01/11 04:04:26;;;;;;;71.25;29.30;;;2.30;77.40;;;;;;4134440;28;20426;-76
2022/01/11 04:06:27;;;;;;;68.75;27.67;;;2.30;77.60;;;;;;4138632;28;20026;-76
2022/01/11 04:08:27;;;;;;;71.85;29.50;;;2.30;77.90;;;;;;4110402;28;20049;-76
2022/01/11 04:10:28;;;;;;;75.15;31.42;;;2.30;78.20;;;;;;4140709;28;20041;-75
2022/01/11 04:12:29;;;;;;;72.90;29.20;;;2.30;78.50;;;;;;4133026;28;20033;-76
2022/01/11 04:14:29;;;;;;;72.40;28.27;;;2.30;78.70;;;;;;4122417;28;20117;-76
2022/01/11 04:16:30;;;;;;;70.85;28.17;;;2.30;78.80;;;;;;4141367;28;20588;-76
2022/01/11 04:18:30;;;;;;;70.00;28.60;;;2.30;79.00;;;;;;4132636;28;20042;-74
2022/01/11 04:20:31;;;;;;;66.57;27.55;;;2.30;79.10;;;;;;4136927;28;20064;-75
2022/01/11 04:22:32;;;;;;;72.85;28.40;;;2.30;79.20;;;;;;4117328;28;20026;-76
2022/01/11 04:24:32;;;;;;;78.43;29.70;;;2.40;79.40;;;;;;4130708;28;20221;-76
2022/01/11 04:26:33;;;;;;;71.30;29.50;;;2.40;79.60;;;;;;4132545;28;20034;-75
2022/01/11 04:28:34;;;;;;;73.38;28.55;;;2.40;79.70;;;;;;4136501;28;20034;-76
2022/01/11 04:30:35;;;;;;;67.60;27.73;;;2.40;79.70;;;;;;4134243;28;20112;-76
2022/01/11 04:32:35;;;;;;;66.72;27.83;;;2.40;80.00;;;;;;4137284;28;20035;-75
2022/01/11 04:34:36;;;;;;;72.25;28.30;;;2.40;79.80;;;;;;4131516;28;20048;-74
2022/01/11 04:36:37;;;;;;;68.13;26.77;;;2.40;80.00;;;;;;4139915;28;20029;-75
2022/01/11 04:38:37;;;;;;;65.63;26.52;;;2.50;80.10;;;;;;4138965;28;20029;-76
2022/01/11 04:40:38;;;;;;;70.85;27.92;;;2.50;80.20;;;;;;4135964;28;20100;-73
2022/01/11 04:42:38;;;;;;;66.38;25.52;;;2.50;80.20;;;;;;4156486;28;20025;-74
2022/01/11 04:44:39;;;;;;;63.72;24.77;;;2.50;80.30;;;;;;4137621;28;20398;-74
2022/01/11 04:46:40;;;;;;;63.22;24.38;;;2.50;80.40;;;;;;4133119;28;20049;-74
2022/01/11 04:48:40;;;;;;;63.47;21.63;;;2.60;80.50;;;;;;4138328;28;20045;-74
2022/01/11 04:50:41;;;;;;;56.33;21.65;;;2.60;80.60;;;;;;4138568;28;20037;-74
2022/01/11 04:52:41;;;;;;;58.72;21.23;;;2.60;80.50;;;;;;4137426;28;20048;-75
2022/01/11 04:54:42;;;;;;;63.67;22.13;;;2.60;80.50;;;;;;4138675;28;20034;-76
2022/01/11 04:56:43;;;;;;;59.08;20.92;;;2.70;80.60;;;;;;4136463;28;20035;-74
2022/01/11 04:58:44;;;;;;;50.97;20.60;;;2.70;80.60;;;;;;4133654;28;20071;-73
2022/01/11 05:00:44;;;;;;;56.42;21.52;;;2.70;80.70;;;;;;4135067;28;20120;-75
2022/01/11 05:02:45;;;;;;;47.67;18.25;;;2.70;80.60;;;;;;4136380;28;20032;-74
2022/01/11 05:04:45;;;;;;;51.70;17.73;;;2.70;80.60;;;;;;4139404;28;20532;-74
2022/01/11 05:06:46;;;;;;;49.83;17.92;;;2.80;80.70;;;;;;4126613;28;20026;-74
2022/01/11 05:08:48;;;;;;;53.47;18.63;;;2.80;80.70;;;;;;4155609;28;20100;-74
2022/01/11 05:10:49;;;;;;;51.92;18.05;;;2.80;80.70;;;;;;4130581;28;20033;-74
2022/01/11 05:12:50;;;;;;;48.75;17.77;;;2.80;80.70;;;;;;4139386;28;20550;-74
2022/01/11 05:14:51;;;;;;;53.45;18.50;;;2.90;80.80;;;;;;4137824;28;20042;-74
2022/01/11 05:16:51;;;;;;;55.33;17.88;;;2.90;80.70;;;;;;4132091;28;20041;-74
2022/01/11 05:18:52;;;;;;;49.35;16.73;;;2.90;80.70;;;;;;4132832;28;20053;-75
2022/01/11 05:20:52;;;;;;;51.65;17.13;;;3.00;80.80;;;;;;4124865;28;20027;-74
2022/01/11 05:22:53;;;;;;;55.30;18.83;;;3.00;80.80;;;;;;4134528;28;20438;-75
2022/01/11 05:24:53;;;;;;;51.30;17.65;;;3.00;80.80;;;;;;4127979;28;20054;-74
2022/01/11 05:26:54;;;;;;;50.25;16.63;;;3.00;80.80;;;;;;4125577;28;20058;-74
2022/01/11 05:28:55;;;;;;;48.92;16.88;;;3.00;80.70;;;;;;4139314;28;20069;-74
2022/01/11 05:30:55;;;;;;;41.13;16.38;;;3.00;80.60;;;;;;4130427;28;20042;-74
2022/01/11 05:32:56;;;;;;;46.15;16.30;;;3.00;80.60;;;;;;4130528;28;20033;-74
2022/01/11 05:34:56;;;;;;;51.90;18.00;;;3.00;80.60;;;;;;4135607;28;20071;-74
2022/01/11 05:36:57;;;;;;;46.50;17.48;;;3.10;80.60;;;;;;4128782;28;20042;-74
2022/01/11 05:38:58;;;;;;;57.50;17.75;;;3.10;80.60;;;;;;4136344;28;20034;-73
2022/01/11 05:40:58;;;;;;;45.33;16.85;;;3.10;80.50;;;;;;4139018;28;20104;-73
2022/01/11 05:42:59;;;;;;;49.15;18.05;;;3.10;80.50;;;;;;4133211;28;20023;-73
2022/01/11 05:44:59;;;;;;;48.20;17.52;;;3.10;80.50;;;;;;4140120;28;20038;-73
2022/01/11 05:47:00;;;;;;;50.92;17.92;;;3.20;80.50;;;;;;4114699;28;20125;-73
2022/01/11 05:49:01;;;;;;;50.40;17.85;;;3.20;80.50;;;;;;4142971;28;20038;-73
2022/01/11 05:51:01;;;;;;;50.83;17.98;;;3.20;80.40;;;;;;4142143;28;20048;-73
2022/01/11 05:53:02;;;;;;;50.55;17.60;;;3.20;80.30;;;;;;4142869;28;20489;-73
2022/01/11 05:55:03;;;;;;;48.78;17.92;;;3.20;80.30;;;;;;4138341;28;20112;-73
2022/01/11 05:57:04;;;;;;;49.03;17.02;;;3.30;80.30;;;;;;4140860;28;20041;-73
2022/01/11 05:59:05;;;;;;;47.25;18.10;;;3.20;80.20;;;;;;4142152;28;20533;-73
2022/01/11 06:01:05;;;;;;;44.63;15.50;;;3.30;80.20;;;;;;4138639;28;20470;-73
2022/01/11 06:03:06;;;;;;;42.08;15.95;;;3.30;80.10;;;;;;4143740;28;20030;-73
2022/01/11 06:05:07;;;;;;;51.80;16.80;;;3.30;80.10;;;;;;4138645;28;20387;-73
2022/01/11 06:07:08;;;;;;;43.30;16.15;;;3.30;80.00;;;;;;4136940;28;20021;-73
2022/01/11 06:09:09;;;;;;;49.30;16.08;;;3.30;80.00;;;;;;4126870;28;20038;-74
2022/01/11 06:11:11;;;;;;;44.80;15.57;;;3.30;80.00;;;;;;4157707;28;20041;-73
2022/01/11 06:13:11;;;;;;;44.75;15.73;;;3.30;80.00;;;;;;4143049;28;20030;-73
2022/01/11 06:15:12;;;;;;;46.45;14.32;;;3.30;79.80;;;;;;4133720;28;20117;-73
2022/01/11 06:17:13;;;;;;;45.42;15.13;;;3.30;79.80;;;;;;4153306;28;20128;-74
2022/01/11 06:19:13;;;;;;;39.63;14.57;;;3.30;79.70;;;;;;4123498;28;20034;-73
2022/01/11 06:21:14;;;;;;;43.85;14.32;;;3.30;79.70;;;;;;4128510;28;20027;-73
2022/01/11 06:23:14;;;;;;;44.60;15.60;;;3.30;79.60;;;;;;4133607;28;20026;-73
2022/01/11 06:25:15;;;;;;;41.90;14.68;;;3.30;79.60;;;;;;4141568;28;20038;-74
2022/01/11 06:27:16;;;;;;;47.38;16.67;;;3.30;79.50;;;;;;4138121;28;20502;-73
2022/01/11 06:29:16;;;;;;;47.70;15.88;;;3.30;79.50;;;;;;4140556;28;20042;-71
2022/01/11 06:31:17;;;;;;;44.63;14.02;;;3.30;79.60;;;;;;4140223;28;20026;-72
2022/01/11 06:33:18;;;;;;;50.28;15.63;;;3.30;79.50;;;;;;4138369;28;20077;-71
2022/01/11 06:35:18;;;;;;;38.90;14.25;;;3.30;79.50;;;;;;4110629;28;20038;-72
2022/01/11 06:37:19;;;;;;;45.95;15.40;;;3.30;79.50;;;;;;4135773;28;20109;-71
2022/01/11 06:39:20;;;;;;;49.30;16.88;;;3.40;79.50;;;;;;4140673;28;20069;-71
2022/01/11 06:41:20;;;;;;;45.63;15.43;;;3.30;79.40;;;;;;4139742;28;20043;-71
2022/01/11 06:43:21;;;;;;;47.15;15.70;;;3.40;79.50;;;;;;4125169;28;20030;-71
2022/01/11 06:45:22;;;;;;;43.33;15.73;;;3.40;79.40;;;;;;4130679;28;20021;-71
2022/01/11 06:47:23;;;;;;;46.80;15.30;;;3.40;79.40;;;;;;4140007;28;20026;-72
2022/01/11 06:49:23;;;;;;;46.75;14.63;;;3.40;79.40;;;;;;4123791;28;20057;-71
2022/01/11 06:51:24;;;;;;;40.70;14.73;;;3.40;79.40;;;;;;4138421;28;20048;-72
2022/01/11 06:53:25;;;;;;;39.08;14.30;;;3.40;79.40;;;;;;4130632;28;20109;-72
2022/01/11 06:55:25;;;;;;;43.30;14.75;;;3.40;79.40;;;;;;4134034;28;20042;-71
2022/01/11 06:57:28;;;;;;;46.15;14.38;;;3.40;79.40;;;;;;4128517;28;20081;-71
2022/01/11 06:59:28;;;;;;;46.97;15.80;;;3.40;79.40;;;;;;4134098;28;20033;-71
2022/01/11 07:01:29;;;;;;;49.53;15.07;;;3.50;79.40;;;;;;4122259;28;20102;-71
2022/01/11 07:03:30;;;;;;;48.55;15.60;;;3.50;79.40;;;;;;4139218;28;20037;-72
2022/01/11 07:05:31;;;;;;;47.00;14.30;;;3.50;79.40;;;;;;4125217;28;20402;-71
2022/01/11 07:07:31;;;;;;;46.78;14.63;;;3.50;79.40;;;;;;4139738;28;20022;-71
2022/01/11 07:09:32;;;;;;;49.08;15.65;;;3.50;79.30;;;;;;4133379;28;20033;-71
2022/01/11 07:11:33;;;;;;;46.38;16.38;;;3.50;79.30;;;;;;4138091;28;20058;-71
2022/01/11 07:13:33;;;;;;;46.22;15.60;;;3.50;79.20;;;;;;4122236;28;20045;-71
2022/01/11 07:15:34;;;;;;;46.08;15.48;;;3.50;79.10;;;;;;4128158;28;20030;-71
2022/01/11 07:17:35;;;;;;;50.63;15.52;;;3.50;79.20;;;;;;4118015;28;20033;-71
2022/01/11 07:19:37;;;;;;;43.65;15.70;;;3.50;79.10;;;;;;4114762;28;20041;-71
2022/01/11 07:21:38;;;;;;;49.47;15.80;;;3.50;79.20;;;;;;4122791;28;20055;-71
2022/01/11 07:23:38;;;;;;;47.50;14.90;;;3.60;79.20;;;;;;4130718;28;20181;-72
2022/01/11 07:25:39;;;;;;;50.33;16.08;;;3.50;79.20;;;;;;4133626;28;20022;-72
2022/01/11 07:27:40;;;;;;;45.72;15.13;;;3.50;79.10;;;;;;4134239;28;20029;-71
2022/01/11 07:29:40;;;;;;;51.05;16.63;;;3.60;79.20;;;;;;4130281;28;20038;-71
2022/01/11 07:31:41;;;;;;;47.22;16.67;;;3.60;79.20;;;;;;4131451;28;20036;-71
2022/01/11 07:33:42;;;;;;;60.90;16.75;;;3.60;79.20;;;;;;4134589;28;20076;-70
2022/01/11 07:35:43;;;;;;;54.00;17.15;;;3.60;79.20;;;;;;4129837;28;20406;-71
2022/01/11 07:37:43;;;;;;;49.50;16.83;;;3.60;79.20;;;;;;4135266;28;20486;-71
2022/01/11 07:39:44;;;;;;;56.83;17.73;;;3.60;79.90;;;;;;4120925;28;20034;-71
2022/01/11 07:41:44;;;;;;;55.60;17.23;;;3.60;79.10;;;;;;4131204;28;20061;-70
2022/01/11 07:43:45;;;;;;;47.95;17.20;;;3.60;79.10;;;;;;4132970;28;20028;-71
2022/01/11 07:45:46;;;;;;;53.25;17.70;;;3.60;79.10;;;;;;4131063;28;20033;-71
2022/01/11 07:47:46;;;;;;;49.40;16.50;;;3.60;79.10;;;;;;4132616;28;20049;-72
2022/01/11 07:49:47;;;;;;;47.65;17.08;;;3.60;79.20;;;;;;4133163;28;20696;-71
2022/01/11 07:51:48;;;;;;;52.30;17.67;;;3.60;79.20;;;;;;4134260;28;20426;-71
2022/01/11 07:53:51;;;;;;;53.30;18.00;;;3.60;79.20;;;;;;4130620;28;20056;-72
2022/01/11 07:55:51;;;;;;;64.80;18.08;;;3.60;79.10;;;;;;4133105;28;20069;-71
2022/01/11 07:57:52;;;;;;;53.92;17.80;;;3.60;79.10;;;;;;4149034;28;20103;-72
2022/01/11 07:59:52;;;;;;;52.00;18.40;;;3.70;79.20;;;;;;4133285;28;20028;-72
2022/01/11 08:01:53;;;;;;;55.63;17.60;;;3.70;79.20;;;;;;4134202;28;20371;-70
2022/01/11 08:03:54;;;;;;;53.38;17.20;;;3.70;79.20;;;;;;4146026;28;20473;-72
2022/01/11 08:05:54;;;;;;;54.70;17.80;;;3.70;79.20;;;;;;4138790;28;20132;-71
2022/01/11 08:07:55;;;;;;;72.53;18.23;;;3.70;79.20;;;;;;4126744;28;20073;-72
2022/01/11 08:09:56;;;;;;;57.13;19.33;;;3.70;79.10;;;;;;4135591;28;20049;-71
2022/01/11 08:11:58;;;;;;;53.85;17.13;;;3.70;79.20;;;;;;4132560;28;20530;-72
2022/01/11 08:13:59;;;;;;;51.05;17.23;;;3.70;79.10;;;;;;4130772;28;20517;-72
2022/01/11 08:18:05;;;;;;;54.90;17.02;;;3.70;79.10;;;;;;4160001;28;20060;-75
2022/01/11 08:20:07;;;;;;;51.42;16.75;;;3.70;79.00;;;;;;4149996;28;20056;-74
2022/01/11 08:22:08;;;;;;;57.90;17.73;;;3.70;79.00;;;;;;4142619;28;20053;-75
2022/01/11 08:24:08;;;;;;;52.28;17.75;;;3.70;78.90;;;;;;4159567;28;20540;-75
2022/01/11 08:26:09;;;;;;;52.88;16.23;;;3.70;79.10;;;;;;4149889;28;20021;-74
2022/01/11 08:28:09;;;;;;;47.78;16.33;;;3.70;78.90;;;;;;4133452;28;20757;-75
2022/01/11 08:30:10;;;;;;;46.10;15.20;;;3.70;78.90;;;;;;4144161;28;20374;-75
2022/01/11 08:32:11;;;;;;;55.65;17.05;;;3.70;78.90;;;;;;4133863;28;20140;-75
2022/01/11 08:34:14;;;;;;;47.05;15.57;;;3.70;78.90;;;;;;4142455;28;20417;-75
2022/01/11 08:36:15;;;;;;;44.00;14.18;;;3.70;78.90;;;;;;4142367;28;20108;-75
2022/01/11 08:38:15;;;;;;;53.67;15.77;;;3.70;78.90;;;;;;4144273;28;20053;-75
2022/01/11 08:40:16;;;;;;;49.50;16.05;;;3.70;78.90;;;;;;4151409;28;20090;-75
2022/01/11 08:42:17;;;;;;;56.80;17.90;;;3.70;78.90;;;;;;4140834;28;20037;-74
2022/01/11 08:44:22;;;;;;;46.72;15.13;;;3.70;78.70;;;;;;4141463;28;20122;-75
2022/01/11 08:46:23;;;;;;;44.15;15.45;;;3.70;78.60;;;;;;4132532;28;20491;-75
2022/01/11 08:48:23;;;;;;;56.47;17.27;;;3.80;78.70;;;;;;4156470;28;20104;-75
2022/01/11 08:50:24;;;;;;;55.95;17.52;;;3.80;78.60;;;;;;4118763;28;20398;-74
2022/01/11 08:52:28;;;;;;;50.70;15.20;;;3.80;78.60;;;;;;4133171;28;20037;-75
2022/01/11 08:54:29;;;;;;;60.20;16.65;;;3.80;78.60;;;;;;4130115;28;20030;-75
2022/01/11 08:56:30;;;;;;;44.78;13.63;;;3.80;78.70;;;;;;4155674;28;21471;-75
2022/01/11 08:58:31;;;;;;;47.85;16.05;;;3.80;78.70;;;;;;4154701;28;20029;-75
2022/01/11 09:00:32;;;;;;;56.85;17.17;;;3.90;78.80;;;;;;4151234;28;20025;-75
2022/01/11 09:02:35;;;;;;;54.50;16.92;;;3.90;78.90;;;;;;4142601;28;20410;-75
2022/01/11 09:04:35;;;;;;;47.92;15.93;;;3.90;78.70;;;;;;4151271;28;20024;-74
2022/01/11 09:06:36;;;;;;;53.05;17.20;;;3.90;78.60;;;;;;4157485;28;20056;-74
2022/01/11 09:08:37;;;;;;;56.38;18.67;;;4.00;78.70;;;;;;4137368;28;20042;-75
2022/01/11 09:10:38;;;;;;;65.30;19.20;;;4.00;78.70;;;;;;4159420;28;20025;-75
2022/01/11 09:12:38;;;;;;;58.38;17.88;;;4.00;78.70;;;;;;4109748;28;20047;-75
2022/01/11 09:14:39;;;;;;;56.10;17.98;;;4.10;78.70;;;;;;4153298;28;20029;-75
2022/01/11 09:16:40;;;;;;;49.08;17.05;;;4.10;78.70;;;;;;4133581;28;20496;-74
2022/01/11 09:18:41;;;;;;;51.80;17.90;;;4.10;78.60;;;;;;4140515;28;20036;-75
2022/01/11 09:20:41;;;;;;;49.35;16.27;;;4.20;78.80;;;;;;4142137;28;20705;-75
2022/01/11 09:22:42;;;;;;;55.45;16.60;;;4.20;78.70;;;;;;4144445;28;20033;-75
2022/01/11 09:24:42;;;;;;;49.88;16.83;;;4.20;78.70;;;;;;4135417;28;20062;-75
2022/01/11 09:26:43;;;;;;;51.70;16.67;;;4.20;78.30;;;;;;4150479;28;20057;-75
2022/01/11 09:28:44;;;;;;;50.50;16.08;;;4.30;78.20;;;;;;4127918;28;20066;-75
2022/01/11 09:30:44;;;;;;;45.13;15.18;;;4.20;78.00;;;;;;4134532;28;20037;-75
2022/01/11 09:32:45;;;;;;;47.65;15.10;;;4.30;78.00;;;;;;4164932;28;20440;-75
2022/01/11 09:34:45;;;;;;;45.03;14.02;;;4.30;77.90;;;;;;4153680;28;20049;-75
2022/01/11 09:36:46;;;;;;;57.92;16.02;;;4.30;77.80;;;;;;4141876;28;20037;-75
2022/01/11 09:38:47;;;;;;;56.15;15.95;;;4.30;77.50;;;;;;4159877;28;20481;-75
2022/01/11 09:40:47;;;;;;;45.33;13.93;;;4.30;77.30;;;;;;4160208;28;20033;-75
2022/01/11 09:42:48;;;;;;;39.88;12.90;;;4.30;77.10;;;;;;4154815;28;20026;-75
2022/01/11 09:44:49;;;;;;;44.55;14.48;;;4.30;76.90;;;;;;4154053;28;20029;-75
2022/01/11 09:46:49;;;;;;;36.92;13.32;;;4.30;76.70;;;;;;4111466;28;20030;-75
2022/01/11 09:48:50;;;;;;;47.65;15.07;;;4.20;76.40;;;;;;4163564;28;20037;-75
2022/01/11 09:50:51;;;;;;;47.35;14.50;;;4.30;76.40;;;;;;4144871;28;20034;-75
2022/01/11 09:52:51;;;;;;;53.40;16.15;;;4.20;76.40;;;;;;4124079;28;20046;-75
2022/01/11 09:54:52;;;;;;;44.60;15.18;;;4.20;76.40;;;;;;4128626;28;20039;-75
2022/01/11 09:56:53;;;;;;;45.13;13.93;;;4.20;76.40;;;;;;4142016;28;20034;-75
2022/01/11 09:58:53;;;;;;;55.30;16.17;;;4.20;76.50;;;;;;4148554;28;20036;-75
2022/01/11 10:00:54;;;;;;;52.85;17.40;;;4.20;76.70;;;;;;4145556;28;20061;-75
2022/01/11 10:02:54;;;;;;;51.28;16.13;;;4.20;76.70;;;;;;4153975;28;20132;-75
2022/01/11 10:04:59;;;;;;;51.22;17.58;;;4.30;76.70;;;;;;4141280;28;20148;-75
2022/01/11 10:07:02;;;;;;;50.20;16.55;;;4.20;76.70;;;;;;4147645;28;20079;-75
2022/01/11 10:09:21;;;;;;;;;;;4.30;76.40;;;;;;4141908;28;20497;-74
2022/01/11 10:11:42;;;;;;;40.10;12.38;;;4.30;76.50;;;;;;4158627;28;20355;-75
2022/01/11 10:13:42;;;;;;;44.30;13.60;;;4.30;76.20;;;;;;4153633;28;20122;-74
2022/01/11 10:15:44;;;;;;;39.00;12.25;;;4.20;75.90;;;;;;4147700;28;20066;-75
2022/01/11 10:17:46;;;;;;;38.95;11.98;;;4.20;75.70;;;;;;4146574;28;20551;-75
2022/01/11 10:19:51;;;;;;;40.60;14.02;;;4.20;75.60;;;;;;4131161;28;20038;-75
2022/01/11 10:21:54;;;;;;;39.78;13.57;;;4.20;75.80;;;;;;4141323;28;20025;-75
2022/01/11 10:23:54;;;;;;;45.83;15.15;;;4.20;75.80;;;;;;4136105;28;20042;-75
2022/01/11 10:25:55;;;;;;;53.08;15.90;;;4.20;75.60;;;;;;4133711;28;20095;-75
2022/01/11 10:28:03;;;;;;;53.85;16.15;;;4.20;75.70;;;;;;4130403;28;20135;-75